Time,TemperatureF,DewpointF,PressureIn,WindDirection,WindDirectionDegrees,WindSpeedMPH,WindSpeedGustMPH,Humidity,HourlyPrecipIn,Conditions,Clouds,dailyrainin,SoftwareType,DateUTC
2013-09-08 18:38:00,76.8,63.7,29.85,ENE,68,0.0,0.0,64,0.00,,---,0.00,VWS V14.01,2013-09-09 01:38:00,
2013-09-08 18:40:00,76.8,64.2,29.85,ENE,68,0.0,0.0,65,0.00,,---,0.00,VWS V14.01,2013-09-09 01:40:00,
2013-09-08 18:45:00,76.6,64.4,29.85,ENE,68,0.0,0.0,66,0.00,,---,0.00,VWS V14.01,2013-09-09 01:45:00,
2013-09-08 18:50:00,76.5,64.7,29.85,East,90,0.0,0.0,67,0.00,,---,0.00,VWS V14.01,2013-09-09 01:50:00,
2013-09-08 18:55:00,76.5,65.1,29.85,ENE,68,0.0,0.0,68,0.00,,---,0.00,VWS V14.01,2013-09-09 01:55:00,
2013-09-08 19:00:00,76.5,64.7,29.85,NNE,22,0.0,0.0,67,0.00,,---,0.00,VWS V14.01,2013-09-09 02:00:00,
2013-09-08 19:05:00,76.3,64.9,29.85,NE,45,0.0,0.0,68,0.00,,---,0.00,VWS V14.01,2013-09-09 02:05:00,
2013-09-08 19:10:00,76.3,64.9,29.85,East,90,0.0,0.0,68,0.00,,---,0.00,VWS V14.01,2013-09-09 02:10:00,
2013-09-08 19:15:00,76.3,64.5,29.85,East,90,0.0,0.0,67,0.00,,---,0.00,VWS V14.01,2013-09-09 02:15:00,
2013-09-08 19:20:00,76.3,64.5,29.85,ESE,112,0.0,0.0,67,0.00,,---,0.00,VWS V14.01,2013-09-09 02:20:00,
2013-09-08 19:25:00,76.3,64.9,29.85,East,90,0.0,0.0,68,0.00,,---,0.00,VWS V14.01,2013-09-09 02:25:00,
2013-09-08 19:30:00,76.3,64.9,29.85,East,90,0.0,0.0,68,0.00,,---,0.00,VWS V14.01,2013-09-09 02:30:00,
2013-09-08 19:35:00,76.3,64.9,29.85,East,90,0.0,0.0,68,0.00,,---,0.00,VWS V14.01,2013-09-09 02:35:00,
2013-09-08 19:40:00,76.3,64.5,29.85,East,90,0.0,0.0,67,0.00,,---,0.00,VWS V14.01,2013-09-09 02:40:00,
2013-09-08 19:45:00,76.3,64.9,29.85,East,90,0.0,0.0,68,0.00,,---,0.00,VWS V14.01,2013-09-09 02:45:00,
2013-09-08 19:50:00,76.1,64.8,29.85,East,90,0.0,0.0,68,0.00,,---,0.00,VWS V14.01,2013-09-09 02:50:00,
2013-09-08 19:56:00,76.1,64.8,29.85,East,90,0.0,0.0,68,0.00,,---,0.00,VWS V14.01,2013-09-09 02:56:00,
2013-09-08 20:01:00,76.1,64.8,29.85,SSE,158,0.9,0.9,68,0.00,,---,0.00,VWS V14.01,2013-09-09 03:01:00,
2013-09-08 20:06:00,76.1,64.8,29.85,SSE,158,0.9,0.9,68,0.00,,---,0.00,VWS V14.01,2013-09-09 03:06:00,
2013-09-08 20:11:00,76.1,64.8,29.85,SSE,158,0.9,0.9,68,0.00,,---,0.00,VWS V14.01,2013-09-09 03:11:00,
2013-09-08 20:16:00,76.1,64.8,29.85,South,180,0.0,0.0,68,0.00,,---,0.00,VWS V14.01,2013-09-09 03:16:00,
2013-09-08 20:21:00,75.9,64.2,29.85,South,180,0.0,0.0,67,0.00,,---,0.00,VWS V14.01,2013-09-09 03:21:00,
2013-09-08 20:26:00,75.9,64.6,29.85,SSW,202,0.0,0.0,68,0.00,,---,0.00,VWS V14.01,2013-09-09 03:26:00,
2013-09-08 20:31:00,75.7,64.4,29.85,SSW,202,0.0,0.0,68,0.00,,---,0.00,VWS V14.01,2013-09-09 03:31:00,
2013-09-08 20:36:00,75.7,64.0,29.85,SSW,202,0.0,0.0,67,0.00,,---,0.00,VWS V14.01,2013-09-09 03:36:00,
2013-09-08 20:41:00,75.7,64.0,29.85,SSW,202,0.0,0.0,67,0.00,,---,0.00,VWS V14.01,2013-09-09 03:41:00,
2013-09-08 20:46:00,75.6,63.8,29.85,SSW,202,0.0,0.0,67,0.00,,---,0.00,VWS V14.01,2013-09-09 03:46:00,
2013-09-08 20:51:00,75.6,63.8,29.85,SW,225,1.6,1.6,67,0.00,,---,0.00,VWS V14.01,2013-09-09 03:51:00,
2013-09-08 20:56:00,75.4,63.7,29.85,WSW,248,1.6,1.6,67,0.00,,---,0.00,VWS V14.01,2013-09-09 03:56:00,
2013-09-08 21:01:00,75.4,64.1,29.85,WSW,248,1.6,1.6,68,0.00,,---,0.00,VWS V14.01,2013-09-09 04:01:00,
2013-09-08 21:02:00,75.4,64.1,29.85,WSW,248,1.6,1.6,68,0.00,,---,0.00,VWS V14.01,2013-09-09 04:02:00,
2013-09-08 21:07:00,75.2,64.3,29.85,WSW,248,1.6,1.6,69,0.00,,---,0.00,VWS V14.01,2013-09-09 04:07:00,
2013-09-08 21:12:00,75.2,64.3,29.85,WSW,248,1.6,1.6,69,0.00,,---,0.00,VWS V14.01,2013-09-09 04:12:00,
2013-09-08 21:17:00,75.0,64.6,29.85,WSW,248,1.6,1.6,70,0.00,,---,0.00,VWS V14.01,2013-09-09 04:17:00,
2013-09-08 21:23:00,74.8,64.4,29.85,WSW,248,1.6,1.6,70,0.00,,---,0.00,VWS V14.01,2013-09-09 04:23:00,
2013-09-08 21:28:00,74.7,64.6,29.85,WSW,248,1.6,1.6,71,0.00,,---,0.00,VWS V14.01,2013-09-09 04:28:00,
2013-09-08 21:33:00,74.7,64.6,29.85,WSW,248,1.6,1.6,71,0.00,,---,0.00,VWS V14.01,2013-09-09 04:33:00,
2013-09-08 21:38:00,74.5,64.9,29.85,WSW,248,1.6,1.6,72,0.00,,---,0.00,VWS V14.01,2013-09-09 04:38:00,
2013-09-08 21:43:00,74.3,64.3,29.85,SW,225,2.2,2.2,71,0.00,,---,0.00,VWS V14.01,2013-09-09 04:43:00,
2013-09-08 21:48:00,74.1,64.5,29.85,SW,225,2.2,2.2,72,0.00,,---,0.00,VWS V14.01,2013-09-09 04:48:00,
2013-09-08 21:53:00,74.1,64.9,29.85,SW,225,2.2,2.2,73,0.00,,---,0.00,VWS V14.01,2013-09-09 04:53:00,
2013-09-08 21:58:00,74.1,64.5,29.85,West,270,1.3,1.3,72,0.00,,---,0.00,VWS V14.01,2013-09-09 04:58:00,
2013-09-08 22:03:00,74.1,64.5,29.85,WNW,292,0.0,0.0,72,0.00,,---,0.00,VWS V14.01,2013-09-09 05:03:00,
2013-09-08 22:08:00,73.9,65.1,29.85,WNW,292,0.0,0.0,74,0.00,,---,0.00,VWS V14.01,2013-09-09 05:08:00,
2013-09-08 22:13:00,73.6,65.2,29.85,WNW,292,0.0,0.0,75,0.00,,---,0.00,VWS V14.01,2013-09-09 05:13:00,
2013-09-08 22:18:00,73.6,64.8,29.85,WNW,292,0.0,0.0,74,0.00,,---,0.00,VWS V14.01,2013-09-09 05:18:00,
2013-09-08 22:23:00,73.6,65.2,29.85,WNW,292,0.0,0.0,75,0.00,,---,0.00,VWS V14.01,2013-09-09 05:23:00,
2013-09-08 22:28:00,73.4,65.0,29.85,WNW,292,0.0,0.0,75,0.00,,---,0.00,VWS V14.01,2013-09-09 05:28:00,
2013-09-08 22:34:00,73.4,64.6,29.85,WNW,292,0.0,0.0,74,0.00,,---,0.00,VWS V14.01,2013-09-09 05:34:00,
2013-09-08 22:39:00,73.6,64.8,29.85,WNW,292,0.0,0.0,74,0.00,,---,0.00,VWS V14.01,2013-09-09 05:39:00,
2013-09-08 22:44:00,73.6,64.8,29.85,WNW,292,0.0,0.0,74,0.00,,---,0.00,VWS V14.01,2013-09-09 05:44:00,
2013-09-08 22:49:00,73.4,64.6,29.85,WNW,292,0.0,0.0,74,0.00,,---,0.00,VWS V14.01,2013-09-09 05:49:00,
2013-09-08 22:54:00,73.4,64.6,29.82,WNW,292,0.0,0.0,74,0.00,,---,0.00,VWS V14.01,2013-09-09 05:54:00,
2013-09-08 22:59:00,73.4,64.6,29.82,WNW,292,0.0,0.0,74,0.00,,---,0.00,VWS V14.01,2013-09-09 05:59:00,
2013-09-08 23:04:00,73.4,64.6,29.82,WNW,292,0.0,0.0,74,0.00,,---,0.00,VWS V14.01,2013-09-09 06:04:00,
2013-09-08 23:09:00,73.4,65.0,29.82,WNW,292,0.0,0.0,75,0.00,,---,0.00,VWS V14.01,2013-09-09 06:09:00,
2013-09-08 23:14:00,73.2,64.8,29.82,WNW,292,0.0,0.0,75,0.00,,---,0.00,VWS V14.01,2013-09-09 06:14:00,
2013-09-08 23:19:00,73.4,64.6,29.82,WNW,292,0.0,0.0,74,0.00,,---,0.00,VWS V14.01,2013-09-09 06:19:00,
2013-09-08 23:24:00,73.4,65.0,29.85,WNW,292,0.0,0.0,75,0.00,,---,0.00,VWS V14.01,2013-09-09 06:24:00,
2013-09-08 23:29:00,73.4,65.0,29.85,WNW,292,0.0,0.0,75,0.00,,---,0.00,VWS V14.01,2013-09-09 06:29:00,
2013-09-08 23:34:00,73.4,65.0,29.85,WNW,292,0.0,0.0,75,0.00,,---,0.00,VWS V14.01,2013-09-09 06:34:00,
2013-09-08 23:39:00,73.4,65.0,29.85,WNW,292,0.0,0.0,75,0.00,,---,0.00,VWS V14.01,2013-09-09 06:39:00,
2013-09-08 23:44:00,73.6,65.6,29.85,WNW,292,0.0,0.0,76,0.00,,---,0.00,VWS V14.01,2013-09-09 06:44:00,
2013-09-08 23:49:00,73.4,65.4,29.85,WNW,292,0.0,0.0,76,0.00,,---,0.00,VWS V14.01,2013-09-09 06:49:00,
2013-09-08 23:54:00,73.4,65.4,29.85,WNW,292,0.0,0.0,76,0.00,,---,0.00,VWS V14.01,2013-09-09 06:54:00,
2013-09-08 23:59:00,73.6,65.9,29.85,WNW,292,0.0,0.0,77,0.00,,---,0.00,VWS V14.01,2013-09-09 06:59:00,